Time;durP1;ratioP1;P1;durP2;ratioP2;P2;SDS_P1;SDS_P2;PMS_P1;PMS_P2;Temp;Humidity;BMP_temperature;BMP_pressure;BME280_temperature;BME280_humidity;BME280_pressure;Samples;Min_cycle;Max_cycle;Signal;HPM_P1;HPM_P2
2021/09/17 00:00:16;;;;;;;4.70;4.40;;;;;;;;;;5125732;27;24497;-61
2021/09/17 00:02:42;;;;;;;4.17;3.87;;;;;;;;;;5124805;27;24512;-61
2021/09/17 00:05:08;;;;;;;4.33;4.03;;;;;;;;;;5126500;27;24416;-61
2021/09/17 00:07:33;;;;;;;4.38;4.07;;;;;;;;;;5127564;27;24393;-61
2021/09/17 00:09:58;;;;;;;4.50;4.20;;;;;;;;;;5127061;27;24642;-60
2021/09/17 00:12:23;;;;;;;4.90;4.60;;;;;;;;;;5117696;27;24485;-60
2021/09/17 00:14:48;;;;;;;5.43;5.03;;;;;;;;;;5123793;27;24413;-61
2021/09/17 00:17:13;;;;;;;4.60;4.20;;;;;;;;;;5119332;27;24994;-61
2021/09/17 00:19:39;;;;;;;5.50;5.00;;;;;;;;;;5125021;27;24904;-61
2021/09/17 00:22:07;;;;;;;4.43;4.13;;;;;;;;;;5111603;27;24443;-61
2021/09/17 00:24:33;;;;;;;5.38;4.97;;;;;;;;;;5114472;27;24421;-61
2021/09/17 00:26:58;;;;;;;4.17;3.87;;;;;;;;;;5122460;27;24408;-61
2021/09/17 00:29:23;;;;;;;5.03;4.73;;;;;;;;;;5126887;27;24413;-61
2021/09/17 00:31:48;;;;;;;6.85;6.25;;;;;;;;;;5124954;27;24466;-60
2021/09/17 00:34:13;;;;;;;5.20;4.90;;;;;;;;;;5120390;27;24417;-60
2021/09/17 00:36:38;;;;;;;4.88;4.57;;;;;;;;;;5120053;27;24500;-60
2021/09/17 00:39:04;;;;;;;6.40;5.80;;;;;;;;;;5119150;27;24812;-60
2021/09/17 00:41:29;;;;;;;5.30;5.00;;;;;;;;;;5112059;27;24521;-61
2021/09/17 00:43:54;;;;;;;4.97;4.57;;;;;;;;;;5107534;27;24485;-60
2021/09/17 00:46:19;;;;;;;5.10;4.80;;;;;;;;;;5125402;27;24970;-60
2021/09/17 00:48:44;;;;;;;5.17;4.77;;;;;;;;;;5127117;27;24492;-60
2021/09/17 00:51:10;;;;;;;7.73;7.13;;;;;;;;;;5123672;27;25191;-60
2021/09/17 00:53:35;;;;;;;6.30;5.80;;;;;;;;;;5108225;28;24438;-60
2021/09/17 00:56:01;;;;;;;6.20;5.70;;;;;;;;;;5125437;28;24527;-61
2021/09/17 00:58:26;;;;;;;6.25;5.75;;;;;;;;;;5121660;28;24488;-61
2021/09/17 01:00:51;;;;;;;6.10;5.60;;;;;;;;;;5119448;27;24858;-61
2021/09/17 01:03:16;;;;;;;6.35;5.85;;;;;;;;;;5131405;27;24414;-61
2021/09/17 01:05:42;;;;;;;5.90;5.50;;;;;;;;;;5117776;27;24742;-61
2021/09/17 01:08:07;;;;;;;5.60;5.20;;;;;;;;;;5123107;27;24405;-60
2021/09/17 01:10:32;;;;;;;5.00;4.70;;;;;;;;;;5131275;27;24943;-61
2021/09/17 01:12:57;;;;;;;5.60;5.20;;;;;;;;;;5128791;27;24524;-61
2021/09/17 01:15:23;;;;;;;5.13;4.73;;;;;;;;;;5122639;27;24425;-61
2021/09/17 01:17:48;;;;;;;5.20;4.70;;;;;;;;;;5131166;27;24536;-59
2021/09/17 01:20:17;;;;;;;4.90;4.50;;;;;;;;;;5126174;27;24508;-59
2021/09/17 01:22:44;;;;;;;4.40;4.10;;;;;;;;;;5130662;27;24773;-60
2021/09/17 01:25:10;;;;;;;4.10;3.80;;;;;;;;;;5125198;27;24424;-60
2021/09/17 01:27:35;;;;;;;4.25;3.95;;;;;;;;;;5124282;27;24421;-60
2021/09/17 01:30:00;;;;;;;3.80;3.60;;;;;;;;;;5123749;27;24413;-59
2021/09/17 01:32:25;;;;;;;4.50;4.20;;;;;;;;;;5123089;27;25885;-60
2021/09/17 01:34:51;;;;;;;3.40;3.20;;;;;;;;;;5127785;27;24508;-60
2021/09/17 01:37:16;;;;;;;3.95;3.65;;;;;;;;;;5129878;27;24717;-60
2021/09/17 01:39:41;;;;;;;3.97;3.67;;;;;;;;;;5128749;27;24420;-60
2021/09/17 01:42:06;;;;;;;3.60;3.40;;;;;;;;;;5130130;27;24474;-61
2021/09/17 01:44:35;;;;;;;3.70;3.50;;;;;;;;;;5129880;27;24486;-59
2021/09/17 01:47:00;;;;;;;3.50;3.20;;;;;;;;;;5130241;27;24554;-60
2021/09/17 01:49:25;;;;;;;3.60;3.30;;;;;;;;;;5123836;27;24528;-60
2021/09/17 01:51:53;;;;;;;4.17;3.77;;;;;;;;;;5127934;27;25138;-60
2021/09/17 01:54:18;;;;;;;3.47;3.10;;;;;;;;;;5129242;27;24424;-60
2021/09/17 01:56:43;;;;;;;2.80;2.60;;;;;;;;;;5129553;27;24413;-60
2021/09/17 01:59:08;;;;;;;3.65;3.35;;;;;;;;;;5129832;27;24396;-60
2021/09/17 02:01:33;;;;;;;3.90;3.60;;;;;;;;;;5128037;27;24800;-59
2021/09/17 02:04:00;;;;;;;3.40;3.20;;;;;;;;;;5119947;27;24409;-59
2021/09/17 02:06:26;;;;;;;4.22;3.72;;;;;;;;;;5129038;27;24501;-60
2021/09/17 02:08:51;;;;;;;4.30;3.90;;;;;;;;;;5124540;27;24520;-60
2021/09/17 02:11:16;;;;;;;3.42;3.13;;;;;;;;;;5126938;27;24428;-59
2021/09/17 02:13:42;;;;;;;3.03;2.83;;;;;;;;;;5127113;27;25103;-60
2021/09/17 02:16:07;;;;;;;3.40;3.10;;;;;;;;;;5124758;27;24465;-60
2021/09/17 02:18:32;;;;;;;2.67;2.47;;;;;;;;;;5129970;27;24405;-59
2021/09/17 02:20:57;;;;;;;3.30;3.10;;;;;;;;;;5122149;27;24792;-59
2021/09/17 02:23:22;;;;;;;3.45;3.17;;;;;;;;;;5127675;27;24478;-59
2021/09/17 02:25:48;;;;;;;3.20;2.90;;;;;;;;;;5123253;27;24408;-59
2021/09/17 02:28:13;;;;;;;2.90;2.70;;;;;;;;;;5129186;27;24983;-60
2021/09/17 02:30:38;;;;;;;3.28;2.92;;;;;;;;;;5126069;27;24500;-60
2021/09/17 02:33:03;;;;;;;3.33;3.13;;;;;;;;;;5126411;27;24449;-60
2021/09/17 02:35:28;;;;;;;3.23;2.93;;;;;;;;;;5111951;27;24418;-60
2021/09/17 02:37:53;;;;;;;3.70;3.40;;;;;;;;;;5120532;27;24697;-59
2021/09/17 02:40:18;;;;;;;2.97;2.78;;;;;;;;;;5121940;27;24511;-60
2021/09/17 02:42:44;;;;;;;3.20;3.00;;;;;;;;;;5124297;27;24425;-60
2021/09/17 02:45:11;;;;;;;2.78;2.58;;;;;;;;;;5125838;27;24432;-60
2021/09/17 02:47:36;;;;;;;4.10;3.70;;;;;;;;;;5129488;27;25014;-60
2021/09/17 02:50:01;;;;;;;4.07;3.73;;;;;;;;;;5116144;27;24530;-60
2021/09/17 02:52:27;;;;;;;2.90;2.70;;;;;;;;;;5125390;27;24444;-59
2021/09/17 02:54:52;;;;;;;3.10;2.90;;;;;;;;;;5121262;27;24458;-60
2021/09/17 02:57:18;;;;;;;3.60;3.30;;;;;;;;;;5128857;27;25248;-60
2021/09/17 02:59:43;;;;;;;3.13;2.90;;;;;;;;;;5121890;27;24432;-60
2021/09/17 03:02:08;;;;;;;3.47;3.17;;;;;;;;;;5128761;27;24501;-60
2021/09/17 03:04:33;;;;;;;3.30;3.10;;;;;;;;;;5106789;27;24519;-61
2021/09/17 03:06:59;;;;;;;3.70;3.40;;;;;;;;;;5122624;27;25079;-60
2021/09/17 03:09:24;;;;;;;2.40;2.30;;;;;;;;;;5110236;27;24425;-61
2021/09/17 03:11:49;;;;;;;4.00;3.30;;;;;;;;;;5128100;27;24416;-61
2021/09/17 03:14:14;;;;;;;3.10;2.80;;;;;;;;;;5124629;27;24421;-61
2021/09/17 03:16:39;;;;;;;3.20;3.00;;;;;;;;;;5128863;27;24392;-60
2021/09/17 03:19:05;;;;;;;3.03;2.83;;;;;;;;;;5126033;27;24428;-60
2021/09/17 03:21:30;;;;;;;2.60;2.40;;;;;;;;;;5124798;27;24528;-60
2021/09/17 03:23:55;;;;;;;3.80;2.72;;;;;;;;;;5127851;27;24963;-61
2021/09/17 03:26:20;;;;;;;3.10;2.55;;;;;;;;;;5120868;27;24405;-61
2021/09/17 03:28:45;;;;;;;2.95;2.75;;;;;;;;;;5125480;27;24525;-60
2021/09/17 03:31:10;;;;;;;2.83;2.63;;;;;;;;;;5116295;27;24424;-59
2021/09/17 03:33:35;;;;;;;2.07;1.97;;;;;;;;;;5119223;27;24974;-60
2021/09/17 03:36:01;;;;;;;3.40;3.10;;;;;;;;;;5127377;27;24470;-60
2021/09/17 03:38:26;;;;;;;2.25;2.15;;;;;;;;;;5126138;27;24858;-59
2021/09/17 03:40:51;;;;;;;2.60;2.40;;;;;;;;;;5127838;27;24448;-60
2021/09/17 03:43:16;;;;;;;2.73;2.53;;;;;;;;;;5118728;27;24422;-59
2021/09/17 03:45:41;;;;;;;2.40;2.20;;;;;;;;;;5127525;27;24440;-59
2021/09/17 03:48:08;;;;;;;3.87;3.23;;;;;;;;;;5123713;27;24869;-59
2021/09/17 03:50:33;;;;;;;2.60;2.40;;;;;;;;;;5111702;27;24417;-60
2021/09/17 03:52:59;;;;;;;2.90;2.70;;;;;;;;;;5119745;27;24505;-59
2021/09/17 03:55:24;;;;;;;3.80;3.50;;;;;;;;;;5124735;27;24439;-59
2021/09/17 03:57:49;;;;;;;3.65;3.35;;;;;;;;;;5123088;27;24413;-59
2021/09/17 04:00:14;;;;;;;3.30;3.00;;;;;;;;;;5124118;27;24420;-59
2021/09/17 04:02:39;;;;;;;3.17;2.80;;;;;;;;;;5108276;27;24465;-59
2021/09/17 04:05:05;;;;;;;3.13;2.83;;;;;;;;;;5113232;27;24441;-59
2021/09/17 04:07:30;;;;;;;2.90;2.70;;;;;;;;;;5114603;27;24474;-59
2021/09/17 04:09:55;;;;;;;3.60;3.40;;;;;;;;;;5115423;27;24412;-60
2021/09/17 04:12:20;;;;;;;4.53;3.70;;;;;;;;;;5127602;27;24549;-59
2021/09/17 04:14:46;;;;;;;4.10;3.70;;;;;;;;;;5122736;27;24417;-59
2021/09/17 04:17:11;;;;;;;3.10;2.90;;;;;;;;;;5110065;27;24409;-59
2021/09/17 04:19:36;;;;;;;4.45;4.05;;;;;;;;;;5123052;27;24986;-59
2021/09/17 04:22:02;;;;;;;3.57;3.37;;;;;;;;;;5119137;27;24429;-60
2021/09/17 04:24:27;;;;;;;3.73;3.43;;;;;;;;;;5123157;27;24551;-60
2021/09/17 04:26:52;;;;;;;4.20;3.90;;;;;;;;;;5113197;27;24509;-60
2021/09/17 04:29:18;;;;;;;4.32;3.92;;;;;;;;;;5112650;27;24413;-60
2021/09/17 04:31:43;;;;;;;4.70;4.20;;;;;;;;;;5112947;27;24792;-59
2021/09/17 04:34:08;;;;;;;4.13;3.83;;;;;;;;;;5124433;27;24413;-60
2021/09/17 04:36:33;;;;;;;5.40;4.90;;;;;;;;;;5111965;27;24697;-60
2021/09/17 04:38:58;;;;;;;5.30;4.70;;;;;;;;;;5114626;27;24451;-60
2021/09/17 04:41:24;;;;;;;4.00;3.70;;;;;;;;;;5120509;27;25019;-59
2021/09/17 04:43:49;;;;;;;5.10;4.60;;;;;;;;;;5106855;27;24545;-60
2021/09/17 04:46:14;;;;;;;5.40;4.90;;;;;;;;;;5102866;28;25345;-60
2021/09/17 04:48:39;;;;;;;5.25;4.78;;;;;;;;;;5103543;28;24413;-60
2021/09/17 04:51:04;;;;;;;5.70;5.20;;;;;;;;;;5102720;27;24437;-62
2021/09/17 04:53:29;;;;;;;6.23;4.97;;;;;;;;;;5112905;27;24960;-59
2021/09/17 04:55:54;;;;;;;5.10;4.60;;;;;;;;;;5116595;27;24793;-60
2021/09/17 04:58:20;;;;;;;5.87;5.37;;;;;;;;;;5117137;28;25277;-59
2021/09/17 05:00:45;;;;;;;5.33;4.90;;;;;;;;;;5113737;27;24429;-59
2021/09/17 05:03:10;;;;;;;4.70;4.30;;;;;;;;;;5121900;28;24398;-60
2021/09/17 05:05:35;;;;;;;5.60;4.72;;;;;;;;;;5112229;27;24730;-60
2021/09/17 05:08:01;;;;;;;4.50;4.20;;;;;;;;;;5112045;28;24932;-60
2021/09/17 05:10:29;;;;;;;6.00;5.20;;;;;;;;;;5122702;28;24470;-61
2021/09/17 05:12:54;;;;;;;6.20;5.60;;;;;;;;;;5122950;28;24424;-59
2021/09/17 05:15:19;;;;;;;5.50;5.00;;;;;;;;;;5125248;28;24421;-60
2021/09/17 05:17:45;;;;;;;6.28;5.70;;;;;;;;;;5124656;28;24467;-59
2021/09/17 05:20:10;;;;;;;5.70;5.05;;;;;;;;;;5121191;28;24496;-59
2021/09/17 05:22:36;;;;;;;5.00;4.60;;;;;;;;;;5108678;28;24430;-60
2021/09/17 05:25:01;;;;;;;6.17;5.70;;;;;;;;;;5119551;28;24532;-60
2021/09/17 05:27:26;;;;;;;7.00;6.30;;;;;;;;;;5117607;28;24807;-59
2021/09/17 05:29:52;;;;;;;6.20;5.60;;;;;;;;;;5109745;28;24402;-60
2021/09/17 05:32:17;;;;;;;6.70;6.20;;;;;;;;;;5116830;28;24582;-60
2021/09/17 05:34:42;;;;;;;5.50;5.10;;;;;;;;;;5123976;28;24476;-60
2021/09/17 05:37:08;;;;;;;6.65;6.10;;;;;;;;;;5126147;28;24462;-59
2021/09/17 05:39:33;;;;;;;6.35;5.75;;;;;;;;;;5124312;28;24442;-60
2021/09/17 05:41:58;;;;;;;6.00;5.50;;;;;;;;;;5118442;28;24457;-61
2021/09/17 05:44:23;;;;;;;7.03;6.07;;;;;;;;;;5105481;28;24869;-59
2021/09/17 05:46:48;;;;;;;6.93;6.32;;;;;;;;;;5112614;27;24413;-59
2021/09/17 05:49:14;;;;;;;5.93;5.32;;;;;;;;;;5128842;27;24412;-60
2021/09/17 05:51:39;;;;;;;6.23;5.67;;;;;;;;;;5115280;27;24803;-59
2021/09/17 05:54:04;;;;;;;8.35;7.07;;;;;;;;;;5118814;27;24490;-60
2021/09/17 05:56:29;;;;;;;6.10;5.60;;;;;;;;;;5109982;28;24523;-59
2021/09/17 05:58:55;;;;;;;6.13;5.53;;;;;;;;;;5123290;27;24418;-60
2021/09/17 06:01:20;;;;;;;6.70;6.00;;;;;;;;;;5130057;27;25191;-59
2021/09/17 06:03:45;;;;;;;6.28;5.75;;;;;;;;;;5127089;27;25056;-59
2021/09/17 06:06:10;;;;;;;6.13;5.63;;;;;;;;;;5129545;27;24416;-60
2021/09/17 06:08:35;;;;;;;5.60;5.00;;;;;;;;;;5130125;27;24582;-59
2021/09/17 06:11:01;;;;;;;5.00;4.50;;;;;;;;;;5129091;27;24765;-59
2021/09/17 06:13:26;;;;;;;5.10;4.60;;;;;;;;;;5129195;27;24413;-59
2021/09/17 06:15:51;;;;;;;5.50;5.00;;;;;;;;;;5129699;27;24443;-59
2021/09/17 06:18:16;;;;;;;5.83;4.83;;;;;;;;;;5129093;27;24413;-59
2021/09/17 06:20:41;;;;;;;4.50;4.20;;;;;;;;;;5130099;27;24493;-60
2021/09/17 06:23:07;;;;;;;5.00;4.50;;;;;;;;;;5128801;27;24397;-60
2021/09/17 06:25:32;;;;;;;4.18;3.88;;;;;;;;;;5127744;27;24477;-60
2021/09/17 06:27:57;;;;;;;4.43;4.10;;;;;;;;;;5123973;27;24402;-60
2021/09/17 06:30:23;;;;;;;5.87;4.53;;;;;;;;;;5121366;27;24500;-60
2021/09/17 06:32:48;;;;;;;4.80;4.40;;;;;;;;;;5126836;27;24444;-60
2021/09/17 06:35:13;;;;;;;5.17;4.20;;;;;;;;;;5115471;27;24867;-61
2021/09/17 06:37:46;;;;;;;4.70;4.30;;;;;;;;;;5107672;28;24870;-60
2021/09/17 06:40:11;;;;;;;3.92;3.63;;;;;;;;;;5120009;27;24497;-60
2021/09/17 06:42:36;;;;;;;4.03;3.72;;;;;;;;;;5124074;27;24466;-60
2021/09/17 06:45:02;;;;;;;4.30;3.95;;;;;;;;;;5122978;27;24441;-61
2021/09/17 06:47:27;;;;;;;4.15;3.75;;;;;;;;;;5119513;27;24413;-60
2021/09/17 06:49:52;;;;;;;3.60;3.30;;;;;;;;;;5125895;27;24840;-60
2021/09/17 06:52:17;;;;;;;3.73;3.40;;;;;;;;;;5125463;27;24406;-60
2021/09/17 06:54:42;;;;;;;4.38;3.10;;;;;;;;;;5115773;27;25279;-61
2021/09/17 06:57:08;;;;;;;3.83;3.50;;;;;;;;;;5110617;27;25017;-60
2021/09/17 06:59:33;;;;;;;3.35;3.05;;;;;;;;;;5125146;27;24417;-60
2021/09/17 07:01:58;;;;;;;3.50;3.20;;;;;;;;;;5114046;27;24425;-60
2021/09/17 07:04:23;;;;;;;3.50;3.20;;;;;;;;;;5110304;27;24406;-60
2021/09/17 07:06:48;;;;;;;4.23;3.60;;;;;;;;;;5124092;27;25249;-60
2021/09/17 07:09:13;;;;;;;3.10;2.90;;;;;;;;;;5108466;27;24470;-60
2021/09/17 07:11:39;;;;;;;4.32;3.60;;;;;;;;;;5108147;28;24400;-59
2021/09/17 07:14:04;;;;;;;3.30;3.10;;;;;;;;;;5107793;28;24390;-61
2021/09/17 07:16:29;;;;;;;3.50;3.20;;;;;;;;;;5108271;28;24917;-60
2021/09/17 07:18:54;;;;;;;3.92;3.20;;;;;;;;;;5107792;28;24889;-60
2021/09/17 07:21:19;;;;;;;3.05;2.85;;;;;;;;;;5107333;28;24459;-60
2021/09/17 07:23:44;;;;;;;3.93;3.00;;;;;;;;;;5107518;28;24443;-60
2021/09/17 07:26:10;;;;;;;2.50;2.30;;;;;;;;;;5107269;28;24992;-60
2021/09/17 07:28:35;;;;;;;3.73;3.43;;;;;;;;;;5107752;28;24450;-60
2021/09/17 07:31:00;;;;;;;4.00;3.70;;;;;;;;;;5107912;28;24397;-60
2021/09/17 07:33:25;;;;;;;3.40;3.10;;;;;;;;;;5107223;28;25143;-59
2021/09/17 07:35:51;;;;;;;2.90;2.70;;;;;;;;;;5107280;28;24410;-60
2021/09/17 07:38:16;;;;;;;3.10;2.80;;;;;;;;;;5107607;28;24432;-59
2021/09/17 07:40:41;;;;;;;3.63;3.33;;;;;;;;;;5107300;28;24390;-59
2021/09/17 07:43:06;;;;;;;3.47;3.17;;;;;;;;;;5107267;28;24986;-60
2021/09/17 07:45:31;;;;;;;3.03;2.83;;;;;;;;;;5107248;28;24398;-59
2021/09/17 07:47:59;;;;;;;3.47;3.13;;;;;;;;;;5107485;28;24423;-59
2021/09/17 07:50:25;;;;;;;3.58;3.28;;;;;;;;;;5106865;28;24400;-59
2021/09/17 07:52:50;;;;;;;3.37;2.97;;;;;;;;;;5107200;28;24389;-59
2021/09/17 07:55:15;;;;;;;3.10;2.90;;;;;;;;;;5106935;28;25202;-60
2021/09/17 07:57:40;;;;;;;3.80;3.40;;;;;;;;;;5107201;28;24446;-60
2021/09/17 08:00:07;;;;;;;3.50;3.10;;;;;;;;;;5106658;28;25096;-59
2021/09/17 08:02:33;;;;;;;3.53;3.20;;;;;;;;;;5106870;28;24479;-59
2021/09/17 08:04:58;;;;;;;3.20;3.00;;;;;;;;;;5106933;28;24390;-59
2021/09/17 08:07:23;;;;;;;3.42;3.22;;;;;;;;;;5126517;27;24405;-59
2021/09/17 08:09:48;;;;;;;2.92;2.72;;;;;;;;;;5127244;27;24458;-59
2021/09/17 08:12:13;;;;;;;3.00;2.80;;;;;;;;;;5127446;27;24408;-59
2021/09/17 08:14:38;;;;;;;3.08;2.88;;;;;;;;;;5127187;27;24397;-59
2021/09/17 08:17:04;;;;;;;3.10;2.90;;;;;;;;;;5127493;27;24791;-59
2021/09/17 08:19:29;;;;;;;3.53;3.23;;;;;;;;;;5127339;27;24419;-59
2021/09/17 08:21:54;;;;;;;2.67;2.57;;;;;;;;;;5126813;27;24505;-59
2021/09/17 08:24:19;;;;;;;3.47;3.17;;;;;;;;;;5125729;27;24457;-60
2021/09/17 08:26:46;;;;;;;3.30;3.10;;;;;;;;;;5127430;27;24566;-59
2021/09/17 08:29:11;;;;;;;3.70;3.50;;;;;;;;;;5126745;27;24978;-60
2021/09/17 08:31:36;;;;;;;4.70;4.20;;;;;;;;;;5126995;27;24421;-60
2021/09/17 08:34:01;;;;;;;4.80;4.40;;;;;;;;;;5126986;27;24428;-59
2021/09/17 08:36:26;;;;;;;4.20;3.95;;;;;;;;;;5126289;27;24408;-59
2021/09/17 08:38:52;;;;;;;4.28;3.97;;;;;;;;;;5126696;27;24508;-60
2021/09/17 08:41:17;;;;;;;4.10;3.80;;;;;;;;;;5126756;27;24428;-60
2021/09/17 08:43:43;;;;;;;4.30;4.00;;;;;;;;;;5127021;27;24963;-59
2021/09/17 08:46:11;;;;;;;3.10;2.90;;;;;;;;;;5126469;27;24509;-60
2021/09/17 08:48:36;;;;;;;3.60;3.40;;;;;;;;;;5126781;27;24384;-60
2021/09/17 08:51:02;;;;;;;2.80;2.60;;;;;;;;;;5125776;27;25374;-60
2021/09/17 08:53:27;;;;;;;2.30;2.20;;;;;;;;;;5126600;27;24388;-60
2021/09/17 08:55:52;;;;;;;2.20;2.10;;;;;;;;;;5126440;27;24924;-60
2021/09/17 08:58:18;;;;;;;1.77;1.60;;;;;;;;;;5125873;28;24388;-60
2021/09/17 09:00:43;;;;;;;2.10;1.90;;;;;;;;;;5126752;28;24969;-59
2021/09/17 09:03:09;;;;;;;2.70;2.50;;;;;;;;;;5126454;28;24397;-59
2021/09/17 09:05:35;;;;;;;2.10;1.90;;;;;;;;;;5121634;28;24497;-59
2021/09/17 09:08:00;;;;;;;2.30;2.10;;;;;;;;;;5105780;28;24459;-59
2021/09/17 09:10:26;;;;;;;2.30;2.20;;;;;;;;;;5105671;28;24420;-59
2021/09/17 09:12:52;;;;;;;3.03;2.90;;;;;;;;;;5105948;28;24431;-59
2021/09/17 09:15:19;;;;;;;3.25;3.03;;;;;;;;;;5105868;28;24695;-60
2021/09/17 09:17:45;;;;;;;3.60;3.40;;;;;;;;;;5106295;28;24429;-59
2021/09/17 09:20:21;;;;;;;3.90;3.60;;;;;;;;;;5105714;28;24405;-59
2021/09/17 09:23:05;;;;;;;3.72;3.42;;;;;;;;;;5109054;28;24606;-59
2021/09/17 09:25:30;;;;;;;4.20;3.90;;;;;;;;;;5110199;28;24396;-59
2021/09/17 09:28:12;;;;;;;3.83;3.63;;;;;;;;;;5109814;28;24824;-58
2021/09/17 09:30:37;;;;;;;3.90;3.70;;;;;;;;;;5109811;28;24381;-59
2021/09/17 09:33:23;;;;;;;3.80;3.60;;;;;;;;;;5109795;28;24785;-59
2021/09/17 09:35:56;;;;;;;3.50;3.30;;;;;;;;;;5098809;28;24414;-59
2021/09/17 09:38:47;;;;;;;2.97;2.67;;;;;;;;;;5109386;28;24390;-59
2021/09/17 09:41:14;;;;;;;3.10;2.90;;;;;;;;;;5106453;28;24541;-59
2021/09/17 09:43:41;;;;;;;3.22;3.03;;;;;;;;;;5109676;28;24408;-59
2021/09/17 09:46:23;;;;;;;3.20;2.90;;;;;;;;;;5109548;28;24392;-59
2021/09/17 09:49:06;;;;;;;2.70;2.50;;;;;;;;;;5109529;28;24973;-59
2021/09/17 09:51:35;;;;;;;2.72;2.53;;;;;;;;;;5109510;28;25026;-59
2021/09/17 09:54:03;;;;;;;2.00;1.90;;;;;;;;;;5109869;28;24435;-59
2021/09/17 09:56:29;;;;;;;2.10;2.00;;;;;;;;;;5109446;28;24390;-59
2021/09/17 09:58:54;;;;;;;3.67;2.00;;;;;;;;;;5108816;28;24485;-60
2021/09/17 10:01:21;;;;;;;2.10;2.00;;;;;;;;;;5109278;28;24967;-59
2021/09/17 10:03:47;;;;;;;2.00;1.80;;;;;;;;;;5109618;28;24447;-59
2021/09/17 10:06:15;;;;;;;2.37;1.80;;;;;;;;;;5118346;27;24401;-59
2021/09/17 10:08:41;;;;;;;2.22;2.10;;;;;;;;;;5129605;27;24407;-59
2021/09/17 10:11:06;;;;;;;1.98;1.88;;;;;;;;;;5129747;27;25007;-59
2021/09/17 10:13:31;;;;;;;2.00;1.90;;;;;;;;;;5129744;27;24520;-59
2021/09/17 10:15:56;;;;;;;1.50;1.40;;;;;;;;;;5129496;27;24476;-59
2021/09/17 10:18:22;;;;;;;1.97;1.50;;;;;;;;;;5129349;27;24419;-60
2021/09/17 10:20:49;;;;;;;2.30;1.20;;;;;;;;;;5129781;27;24967;-59
2021/09/17 10:23:27;;;;;;;1.70;1.10;;;;;;;;;;5129420;27;24393;-60
2021/09/17 10:26:04;;;;;;;0.87;0.87;;;;;;;;;;5128845;27;24397;-60
2021/09/17 10:28:30;;;;;;;0.93;0.93;;;;;;;;;;5129368;27;24502;-59
2021/09/17 10:31:12;;;;;;;1.10;1.00;;;;;;;;;;5129053;27;24485;-60
2021/09/17 10:33:37;;;;;;;1.00;1.00;;;;;;;;;;5127286;27;24421;-59
2021/09/17 10:36:03;;;;;;;1.23;1.00;;;;;;;;;;5129415;27;24518;-59
2021/09/17 10:38:29;;;;;;;1.60;1.20;;;;;;;;;;5128907;27;24414;-60
2021/09/17 10:40:55;;;;;;;1.30;1.10;;;;;;;;;;5129075;27;24841;-59
2021/09/17 10:43:38;;;;;;;1.10;1.00;;;;;;;;;;5128912;27;24390;-59
2021/09/17 10:46:03;;;;;;;2.20;1.60;;;;;;;;;;5129028;27;24722;-59
2021/09/17 10:48:51;;;;;;;1.52;1.42;;;;;;;;;;5129012;27;24929;-59
2021/09/17 10:51:35;;;;;;;1.30;1.20;;;;;;;;;;5128926;27;24401;-59
2021/09/17 10:54:02;;;;;;;2.40;1.90;;;;;;;;;;5129108;27;24746;-59
2021/09/17 10:56:28;;;;;;;1.95;1.85;;;;;;;;;;5128353;27;24554;-59
2021/09/17 10:59:18;;;;;;;1.67;1.58;;;;;;;;;;5128600;27;24531;-60
2021/09/17 11:01:50;;;;;;;1.75;1.65;;;;;;;;;;5128678;27;25204;-59
2021/09/17 11:04:19;;;;;;;1.73;1.63;;;;;;;;;;5128517;27;24396;-60
2021/09/17 11:06:45;;;;;;;2.05;1.85;;;;;;;;;;5114134;27;24389;-59
2021/09/17 11:09:10;;;;;;;1.50;1.40;;;;;;;;;;5107885;28;24470;-60
2021/09/17 11:11:38;;;;;;;2.10;1.90;;;;;;;;;;5108215;28;24424;-59
2021/09/17 11:14:10;;;;;;;1.90;1.60;;;;;;;;;;5108218;28;24493;-59
2021/09/17 11:16:36;;;;;;;1.70;1.60;;;;;;;;;;5107338;28;24921;-59
2021/09/17 11:19:05;;;;;;;2.10;1.50;;;;;;;;;;5107763;28;24400;-60
2021/09/17 11:21:31;;;;;;;1.50;1.40;;;;;;;;;;5107637;28;24512;-60
2021/09/17 11:23:57;;;;;;;1.40;1.30;;;;;;;;;;5107450;28;24457;-59
2021/09/17 11:26:24;;;;;;;1.50;1.40;;;;;;;;;;5107549;28;24386;-60
2021/09/17 11:29:04;;;;;;;1.45;1.35;;;;;;;;;;5107590;28;24469;-60
2021/09/17 11:31:35;;;;;;;1.50;1.23;;;;;;;;;;5107574;28;25008;-60
2021/09/17 11:34:02;;;;;;;1.40;1.30;;;;;;;;;;5107443;28;24512;-60
2021/09/17 11:36:38;;;;;;;1.40;1.30;;;;;;;;;;5107411;28;24821;-59
2021/09/17 11:39:14;;;;;;;2.65;1.40;;;;;;;;;;5107365;28;24710;-59
2021/09/17 11:41:39;;;;;;;1.30;1.20;;;;;;;;;;5107281;28;24458;-60
2021/09/17 11:44:04;;;;;;;2.07;1.50;;;;;;;;;;5106938;28;24434;-59
2021/09/17 11:46:30;;;;;;;1.40;1.30;;;;;;;;;;5107343;28;24936;-60
2021/09/17 11:48:55;;;;;;;1.50;1.40;;;;;;;;;;5107253;28;24485;-59
2021/09/17 11:51:21;;;;;;;1.43;1.30;;;;;;;;;;5107360;28;24745;-60
2021/09/17 11:53:46;;;;;;;1.17;1.08;;;;;;;;;;5107578;28;24923;-59
2021/09/17 11:56:11;;;;;;;1.20;1.10;;;;;;;;;;5106897;28;24466;-60
2021/09/17 11:58:40;;;;;;;1.30;1.20;;;;;;;;;;5106791;28;24382;-59
2021/09/17 12:01:15;;;;;;;1.35;1.25;;;;;;;;;;5106960;28;24438;-60
2021/09/17 12:03:40;;;;;;;1.20;1.10;;;;;;;;;;5106998;28;24940;-60
2021/09/17 12:06:05;;;;;;;1.60;1.50;;;;;;;;;;5115433;27;24413;-59
2021/09/17 12:08:30;;;;;;;1.30;1.20;;;;;;;;;;5127512;27;24434;-60
2021/09/17 12:11:00;;;;;;;1.67;1.53;;;;;;;;;;5127380;27;25351;-60
2021/09/17 12:13:26;;;;;;;1.70;1.60;;;;;;;;;;5126725;27;24524;-60
2021/09/17 12:15:55;;;;;;;1.70;1.60;;;;;;;;;;5127207;27;24963;-60
2021/09/17 12:18:20;;;;;;;1.88;1.58;;;;;;;;;;5126895;27;24396;-61
2021/09/17 12:20:54;;;;;;;1.90;1.80;;;;;;;;;;5124734;27;24397;-60
2021/09/17 12:23:20;;;;;;;1.35;1.25;;;;;;;;;;5124494;27;24428;-60
2021/09/17 12:25:46;;;;;;;1.60;1.38;;;;;;;;;;5126786;27;24462;-61
2021/09/17 12:28:17;;;;;;;1.73;1.63;;;;;;;;;;5126559;27;24402;-60
2021/09/17 12:30:42;;;;;;;1.50;1.40;;;;;;;;;;5127127;27;24752;-60
2021/09/17 12:33:11;;;;;;;2.00;1.90;;;;;;;;;;5126178;27;24421;-60
2021/09/17 12:35:37;;;;;;;2.20;1.70;;;;;;;;;;5126870;27;24761;-60
2021/09/17 12:38:06;;;;;;;2.00;1.90;;;;;;;;;;5126328;27;24551;-60
2021/09/17 12:40:32;;;;;;;1.50;1.40;;;;;;;;;;5126894;27;24477;-60
2021/09/17 12:43:01;;;;;;;2.20;2.00;;;;;;;;;;5126794;27;24540;-60
2021/09/17 12:45:27;;;;;;;2.00;1.90;;;;;;;;;;5126516;27;24476;-60
2021/09/17 12:47:53;;;;;;;2.30;2.10;;;;;;;;;;5126520;27;24488;-61
2021/09/17 12:50:19;;;;;;;2.65;1.70;;;;;;;;;;5126838;27;24823;-60
2021/09/17 12:52:45;;;;;;;2.33;2.13;;;;;;;;;;5126833;27;24924;-60
2021/09/17 12:55:21;;;;;;;2.30;2.10;;;;;;;;;;5126630;27;24482;-61
2021/09/17 12:58:02;;;;;;;2.20;2.10;;;;;;;;;;5126052;28;24426;-60
2021/09/17 13:00:29;;;;;;;2.00;1.90;;;;;;;;;;5126437;27;24412;-60
2021/09/17 13:02:54;;;;;;;1.80;1.70;;;;;;;;;;5126360;28;24401;-61
2021/09/17 13:05:19;;;;;;;2.10;2.00;;;;;;;;;;5126546;28;24405;-60
2021/09/17 13:07:45;;;;;;;2.70;2.50;;;;;;;;;;5126714;28;24380;-60
2021/09/17 13:10:10;;;;;;;2.30;2.10;;;;;;;;;;5126591;28;24400;-60
2021/09/17 13:12:36;;;;;;;3.20;2.90;;;;;;;;;;5126214;28;24538;-60
2021/09/17 13:15:01;;;;;;;2.40;2.20;;;;;;;;;;5127236;28;24795;-60
2021/09/17 13:17:26;;;;;;;2.40;2.20;;;;;;;;;;5126147;28;24450;-60
2021/09/17 13:19:52;;;;;;;2.33;1.90;;;;;;;;;;5126157;28;24396;-60
2021/09/17 13:22:17;;;;;;;1.97;1.77;;;;;;;;;;5106634;28;24513;-61
2021/09/17 13:24:42;;;;;;;2.00;1.90;;;;;;;;;;5126170;28;24428;-60
2021/09/17 13:27:08;;;;;;;2.30;2.20;;;;;;;;;;5125690;28;24510;-60
2021/09/17 13:29:33;;;;;;;2.17;2.03;;;;;;;;;;5126073;27;24496;-61
2021/09/17 13:31:58;;;;;;;2.05;1.90;;;;;;;;;;5125425;28;24482;-59
2021/09/17 13:34:23;;;;;;;2.47;2.20;;;;;;;;;;5117228;27;24437;-60
2021/09/17 13:36:48;;;;;;;2.23;2.13;;;;;;;;;;5120772;28;24451;-61
2021/09/17 13:39:13;;;;;;;1.70;1.60;;;;;;;;;;5125876;28;24405;-61
2021/09/17 13:41:39;;;;;;;2.10;1.80;;;;;;;;;;5126184;28;25052;-61
2021/09/17 13:44:04;;;;;;;2.40;2.20;;;;;;;;;;5126367;28;24456;-61
2021/09/17 13:46:29;;;;;;;2.72;2.25;;;;;;;;;;5124305;28;24532;-61
2021/09/17 13:48:54;;;;;;;1.70;1.60;;;;;;;;;;5123881;28;24460;-61
2021/09/17 13:51:20;;;;;;;2.53;2.43;;;;;;;;;;5123768;28;24419;-61
2021/09/17 13:53:45;;;;;;;2.40;2.20;;;;;;;;;;5123058;28;24527;-60
2021/09/17 13:56:10;;;;;;;2.10;2.00;;;;;;;;;;5122489;28;24435;-61
2021/09/17 13:58:35;;;;;;;2.30;2.10;;;;;;;;;;5122923;27;24388;-61
2021/09/17 14:01:00;;;;;;;2.50;2.30;;;;;;;;;;5122447;28;24970;-61
2021/09/17 14:03:25;;;;;;;2.72;2.53;;;;;;;;;;5122289;28;24492;-60
2021/09/17 14:05:51;;;;;;;2.50;2.40;;;;;;;;;;5122734;28;24404;-60
2021/09/17 14:08:17;;;;;;;2.40;2.30;;;;;;;;;;5124640;27;24424;-60
2021/09/17 14:10:42;;;;;;;2.90;2.60;;;;;;;;;;5126324;27;24453;-61
2021/09/17 14:13:07;;;;;;;2.40;2.30;;;;;;;;;;5126897;27;24900;-60
2021/09/17 14:15:32;;;;;;;2.50;2.30;;;;;;;;;;5125841;27;24481;-60
2021/09/17 14:17:57;;;;;;;2.60;2.40;;;;;;;;;;5126315;27;24412;-60
2021/09/17 14:20:23;;;;;;;2.13;2.03;;;;;;;;;;5125878;27;24992;-61
2021/09/17 14:22:48;;;;;;;2.80;2.60;;;;;;;;;;5125611;27;25002;-61
2021/09/17 14:25:13;;;;;;;2.00;1.90;;;;;;;;;;5126371;27;24920;-61
2021/09/17 14:27:39;;;;;;;2.80;2.60;;;;;;;;;;5129065;27;24488;-60
2021/09/17 14:30:05;;;;;;;2.00;1.90;;;;;;;;;;5129328;27;24765;-60
2021/09/17 14:32:30;;;;;;;3.20;2.90;;;;;;;;;;5128814;27;24418;-60
2021/09/17 14:34:55;;;;;;;2.15;2.00;;;;;;;;;;5128987;27;24446;-60
2021/09/17 14:37:21;;;;;;;1.70;1.60;;;;;;;;;;5128473;27;25031;-61